Accueil
METAR-TAF:

METAR-TAF

Aéroports :

Aéroport international de Phuket

Phuket, Thaïlande

latitude: 08-07N, longitude: 098-19E, altitude: 6 m

Observation

Le bulletin a été fait il y a 29 minutes, à 01:30 UTC
Vent 12 kt de ouest/sud-ouest
Température 29°C
Humidité 79%
Pression 1007 hPa
Visibilité 10 km ou plus
Nuages épars à une hauteur de 2000 ft

METAR: VTSP 220130Z 25012KT 9999 SCT020 29/25 Q1007 WS ALL RWY NOSIG

Heure: 08:59 (01:59 UTC)

Prévision

Le bulletin a été fait il y a 2 heures et 59 minutes, à 23:00 UTC
Prévision valable du 22 à 00 UTC au 23 à 06 UTC
Vent 8 kt de ouest
Visibilité 10 km ou plus
Nuages épars à une hauteur de 2000 ft
Temporairement
du 22 à 00 UTC au 22 à 08 UTC
Quelques nuages à une hauteur de 1800 ft, Cumulonimbus.
Nuages épars à une hauteur de 2000 ft
Nuages fragmentés à une hauteur de 10000 ft
orage, pluie faible,

TAF: VTSP 212300Z 2200/2306 26008KT 9999 SCT020 TEMPO 2200/2208 -TSRA FEW018CB SCT020 BKN100

Observations et prévisions météorologiques de plus de 4000 aéroports (messages METAR et TAF).

Les stations disponibles sont représentées par des disques jaunes et rouges sur la carte.

Passer la souris dessus pour voir le nom de la station.

Cliquer dessus pour voir les observations et prévisions météorologiques.

Pour changer de carte: cliquez sur les boutons verts avec une croix noire pour zoomer, sur le bouton vert avec un tiret pour effectuer un zoom arrière, ou sur les flèches vertes pour les cartes adjacentes.


METAR-TAF: